Ellipsis — WDE4581 — position and weather

sailwx.info

Track history (hours):
 
Tides and Currents Weather Stations Pressure Air Temp Water Temp Dewpoint Dewpoint Depression Visibility Wind Speed Wind Dir Waves Ship Positions

Ellipsis

Owner: Gulledge, Carl L, Redmond, WA. More information available from US FCC via Universal Licensing System and Coast Guard Vessel Documentation Center.

Last reported at 2016-Sep-08 20:21 UTC. Time now 2016-Sep-29 15:16 UTC.
Position N 47°38' W 122°35'.
Warning: this ship's position is 20 days out of date.

Length 19 m.

Type: Pleasure craft. MMSI: 367355160.

Date/timePositionNaut miles runAvg speedWind from/ knotsBaromVisibWave heightAir tempDewpointWater temp
2016-Sep-08 20:21N 47°38' W 122°35'5 6.6
2016-Sep-08 19:32N 47°33' W 122°38'0 0.0
2016-Sep-08 18:32N 47°33' W 122°38'0 0.0
2016-Sep-08 17:32N 47°33' W 122°38'0 0.0
2016-Sep-08 16:32N 47°33' W 122°38'0 0.0
2016-Sep-08 15:32N 47°33' W 122°38'0 0.0
2016-Sep-08 14:32N 47°33' W 122°38'0 0.0
2016-Sep-08 13:32N 47°33' W 122°38'0 0.0
2016-Sep-08 12:32N 47°33' W 122°38'0 0.0
2016-Sep-08 11:32N 47°33' W 122°38'0 0.0
2016-Sep-08 10:32N 47°33' W 122°38'0 0.0
2016-Sep-08 09:32N 47°33' W 122°38'0 0.0
2016-Sep-08 08:32N 47°33' W 122°38'0 0.0
2016-Sep-08 07:32N 47°33' W 122°38'0 0.0
2016-Sep-08 06:32N 47°33' W 122°38'0 0.0
2016-Sep-08 05:32N 47°33' W 122°38'0 0.0
2016-Sep-08 04:32N 47°33' W 122°38'0 0.0
2016-Sep-08 03:32N 47°33' W 122°38'0 0.0
2016-Sep-08 02:32N 47°33' W 122°38'0 0.0
2016-Sep-08 01:32N 47°33' W 122°38'0 0.0
2016-Sep-08 00:32N 47°33' W 122°38'0 0.0
2016-Sep-07 23:32N 47°33' W 122°38'0 0.0
2016-Sep-07 22:32N 47°33' W 122°38'0 0.0
2016-Sep-07 21:32N 47°33' W 122°38'0 0.0
2016-Sep-07 20:32N 47°33' W 122°38'0 0.0
2016-Sep-07 19:32N 47°33' W 122°38'0 0.0
2016-Sep-07 18:32N 47°33' W 122°38'0 0.0
2016-Sep-07 17:32N 47°33' W 122°38'0 0.0
2016-Sep-07 16:32N 47°33' W 122°38'0 0.0
2016-Sep-07 15:32N 47°33' W 122°38'0 0.0
2016-Sep-07 14:32N 47°33' W 122°38'0 0.0
2016-Sep-07 13:32N 47°33' W 122°38'0 0.0
2016-Sep-07 12:32N 47°33' W 122°38'0 0.0
2016-Sep-07 11:32N 47°33' W 122°38'0 0.0
2016-Sep-07 10:32N 47°33' W 122°38'0 0.0
2016-Sep-07 09:32N 47°33' W 122°38'0 0.0
2016-Sep-07 08:32N 47°33' W 122°38'0 0.0
2016-Sep-07 07:32N 47°33' W 122°38'0 0.0
2016-Sep-07 06:32N 47°33' W 122°38'0 0.0
2016-Sep-07 04:32N 47°33' W 122°38'0 0.0
2016-Sep-07 03:32N 47°33' W 122°38'1 1.3
2016-Sep-07 02:33N 47°33' W 122°37'5 5.4
2016-Sep-07 01:33N 47°31' W 122°30'8 8.4
2016-Sep-07 00:33N 47°22' W 122°32'3 0.1
2016-Sep-05 23:19N 47°20' W 122°34'6 7.9
2016-Sep-05 22:30N 47°26' W 122°32'8 7.7
2016-Sep-05 21:31N 47°33' W 122°28'  
2016-Sep-03 17:28N 47°41' W 122°25'0 0.0
2016-Sep-03 16:31N 47°41' W 122°25'0 0.0
2016-Sep-03 15:31N 47°41' W 122°25'0 0.0
2016-Sep-03 14:31N 47°41' W 122°25'0 0.0
2016-Sep-03 13:31N 47°41' W 122°25'0 0.0
2016-Sep-03 12:34N 47°41' W 122°25'0 0.0
2016-Sep-03 11:31N 47°41' W 122°25'0 0.0
2016-Sep-03 10:34N 47°41' W 122°25'0 0.0
2016-Sep-03 09:31N 47°41' W 122°25'0 0.0
2016-Sep-03 08:31N 47°41' W 122°25'0 0.0
2016-Sep-03 07:31N 47°41' W 122°25'0 0.0
2016-Sep-03 06:31N 47°41' W 122°25'0 0.0
2016-Sep-03 05:28N 47°41' W 122°25'0 0.0
2016-Sep-03 04:31N 47°41' W 122°25'0 0.0
2016-Sep-03 03:31N 47°41' W 122°25'0 0.0
2016-Sep-03 02:31N 47°41' W 122°25'0 0.0
2016-Sep-03 01:31N 47°41' W 122°25'0 0.0
2016-Sep-03 00:31N 47°41' W 122°25'0 0.0
2016-Sep-02 23:31N 47°41' W 122°25'0 0.0
2016-Sep-02 22:31N 47°41' W 122°25'0 0.0
2016-Sep-02 21:31N 47°41' W 122°25'0 0.0
2016-Sep-02 20:31N 47°41' W 122°25'0 0.0
2016-Sep-02 19:31N 47°41' W 122°25'  
Track history (hours):
 
Tides and Currents Weather Stations Pressure Air Temp Water Temp Dewpoint Dewpoint Depression Visibility Wind Speed Wind Dir Waves Ship Positions

Ellipsis

Owner: Gulledge, Carl L, Redmond, WA. More information available from US FCC via Universal Licensing System and Coast Guard Vessel Documentation Center.

Last reported at 2016-Sep-08 20:21 UTC. Time now 2016-Sep-29 15:16 UTC.
Position N 47°38' W 122°35'.
Warning: this ship's position is 20 days out of date.

Length 19 m.

Type: Pleasure craft. MMSI: 367355160.

Date/timePositionNaut miles runAvg speedWind from/ knotsBaromVisibWave heightAir tempDewpointWater temp
2016-Sep-08 20:21N 47°38' W 122°35'5 6.6
2016-Sep-08 19:32N 47°33' W 122°38'0 0.0
2016-Sep-08 18:32N 47°33' W 122°38'0 0.0
2016-Sep-08 17:32N 47°33' W 122°38'0 0.0
2016-Sep-08 16:32N 47°33' W 122°38'0 0.0
2016-Sep-08 15:32N 47°33' W 122°38'0 0.0
2016-Sep-08 14:32N 47°33' W 122°38'0 0.0
2016-Sep-08 13:32N 47°33' W 122°38'0 0.0
2016-Sep-08 12:32N 47°33' W 122°38'0 0.0
2016-Sep-08 11:32N 47°33' W 122°38'0 0.0
2016-Sep-08 10:32N 47°33' W 122°38'0 0.0
2016-Sep-08 09:32N 47°33' W 122°38'0 0.0
2016-Sep-08 08:32N 47°33' W 122°38'0 0.0
2016-Sep-08 07:32N 47°33' W 122°38'0 0.0
2016-Sep-08 06:32N 47°33' W 122°38'0 0.0
2016-Sep-08 05:32N 47°33' W 122°38'0 0.0
2016-Sep-08 04:32N 47°33' W 122°38'0 0.0
2016-Sep-08 03:32N 47°33' W 122°38'0 0.0
2016-Sep-08 02:32N 47°33' W 122°38'0 0.0
2016-Sep-08 01:32N 47°33' W 122°38'0 0.0
2016-Sep-08 00:32N 47°33' W 122°38'0 0.0
2016-Sep-07 23:32N 47°33' W 122°38'0 0.0
2016-Sep-07 22:32N 47°33' W 122°38'0 0.0
2016-Sep-07 21:32N 47°33' W 122°38'0 0.0
2016-Sep-07 20:32N 47°33' W 122°38'0 0.0
2016-Sep-07 19:32N 47°33' W 122°38'0 0.0
2016-Sep-07 18:32N 47°33' W 122°38'0 0.0
2016-Sep-07 17:32N 47°33' W 122°38'0 0.0
2016-Sep-07 16:32N 47°33' W 122°38'0 0.0
2016-Sep-07 15:32N 47°33' W 122°38'0 0.0
2016-Sep-07 14:32N 47°33' W 122°38'0 0.0
2016-Sep-07 13:32N 47°33' W 122°38'0 0.0
2016-Sep-07 12:32N 47°33' W 122°38'0 0.0
2016-Sep-07 11:32N 47°33' W 122°38'0 0.0
2016-Sep-07 10:32N 47°33' W 122°38'0 0.0
2016-Sep-07 09:32N 47°33' W 122°38'0 0.0
2016-Sep-07 08:32N 47°33' W 122°38'0 0.0
2016-Sep-07 07:32N 47°33' W 122°38'0 0.0
2016-Sep-07 06:32N 47°33' W 122°38'0 0.0
2016-Sep-07 04:32N 47°33' W 122°38'0 0.0
2016-Sep-07 03:32N 47°33' W 122°38'1 1.3
2016-Sep-07 02:33N 47°33' W 122°37'5 5.4
2016-Sep-07 01:33N 47°31' W 122°30'8 8.4
2016-Sep-07 00:33N 47°22' W 122°32'3 0.1
2016-Sep-05 23:19N 47°20' W 122°34'6 7.9
2016-Sep-05 22:30N 47°26' W 122°32'8 7.7
2016-Sep-05 21:31N 47°33' W 122°28'  
2016-Sep-03 17:28N 47°41' W 122°25'0 0.0
2016-Sep-03 16:31N 47°41' W 122°25'0 0.0
2016-Sep-03 15:31N 47°41' W 122°25'0 0.0
2016-Sep-03 14:31N 47°41' W 122°25'0 0.0
2016-Sep-03 13:31N 47°41' W 122°25'0 0.0
2016-Sep-03 12:34N 47°41' W 122°25'0 0.0
2016-Sep-03 11:31N 47°41' W 122°25'0 0.0
2016-Sep-03 10:34N 47°41' W 122°25'0 0.0
2016-Sep-03 09:31N 47°41' W 122°25'0 0.0
2016-Sep-03 08:31N 47°41' W 122°25'0 0.0
2016-Sep-03 07:31N 47°41' W 122°25'0 0.0
2016-Sep-03 06:31N 47°41' W 122°25'0 0.0
2016-Sep-03 05:28N 47°41' W 122°25'0 0.0
2016-Sep-03 04:31N 47°41' W 122°25'0 0.0
2016-Sep-03 03:31N 47°41' W 122°25'0 0.0
2016-Sep-03 02:31N 47°41' W 122°25'0 0.0
2016-Sep-03 01:31N 47°41' W 122°25'0 0.0
2016-Sep-03 00:31N 47°41' W 122°25'0 0.0
2016-Sep-02 23:31N 47°41' W 122°25'0 0.0
2016-Sep-02 22:31N 47°41' W 122°25'0 0.0
2016-Sep-02 21:31N 47°41' W 122°25'0 0.0
2016-Sep-02 20:31N 47°41' W 122°25'0 0.0
2016-Sep-02 19:31N 47°41' W 122°25'  

Dump ship's entire track history